Cheryl K — WDD3191 — position and weather

sailwx.info

Track history (hours):
 
Tides and Currents Weather Stations Pressure Air Temp Water Temp Dewpoint Dewpoint Depression Visibility Wind Speed Wind Dir Waves Ship Positions

Cheryl K

Owner: The Tug Cheryl K, L.L.C., Sugar Land, TX. More information available from US FCC via Universal Licensing System and Coast Guard Vessel Documentation Center.

Last reported at 2018-Feb-19 21:09 UTC. Time now 2018-Feb-24 16:37 UTC.
Position N 29°47' W 095°04'.

Type: Towing. MMSI: 367127110.

Date/timePositionNaut miles runAvg speedWind from/ knotsBaromVisibWave heightAir tempDewpointWater temp
2018-Feb-19 21:09N 29°47' W 095°04'0 0.0
2018-Feb-19 15:15N 29°47' W 095°04'1 1.9
2018-Feb-19 14:50N 29°48' W 095°04'0 0.8
2018-Feb-19 14:30N 29°48' W 095°04'0 0.0
2018-Feb-19 14:00N 29°48' W 095°04'0 0.0
2018-Feb-19 13:28N 29°48' W 095°04'0 0.0
2018-Feb-19 10:36N 29°48' W 095°04'0 0.3
2018-Feb-19 10:13N 29°48' W 095°04'0 0.2
2018-Feb-19 09:39N 29°48' W 095°04'0 0.0
2018-Feb-19 09:30N 29°48' W 095°04'0 0.2
2018-Feb-19 08:58N 29°48' W 095°04'0 0.0
2018-Feb-19 08:27N 29°48' W 095°04'0 0.0
2018-Feb-19 08:00N 29°48' W 095°04'0 0.0
2018-Feb-19 07:20N 29°48' W 095°04'0 0.7
2018-Feb-19 06:49N 29°48' W 095°04'1 1.5
2018-Feb-19 06:26N 29°47' W 095°04'1 1.3
2018-Feb-19 05:56N 29°48' W 095°04'0 0.0
2018-Feb-19 05:30N 29°48' W 095°04'0 0.0
2018-Feb-19 04:54N 29°48' W 095°04'  
2018-Feb-16 20:46N 29°45' W 095°06'4 3.4
2018-Feb-16 19:38N 29°45' W 095°11'2 6.5
2018-Feb-16 19:21N 29°44' W 095°09'4 6.4
2018-Feb-16 18:43N 29°46' W 095°05'1 0.9
2018-Feb-16 17:20N 29°47' W 095°04'1 1.6
2018-Feb-16 17:00N 29°47' W 095°04'1 1.7
2018-Feb-16 16:30N 29°46' W 095°05'0 0.2
2018-Feb-16 15:47N 29°46' W 095°05'0 0.4
2018-Feb-16 15:30N 29°46' W 095°05'2 0.3
2018-Feb-16 10:02N 29°48' W 095°04'0 0.0
2018-Feb-16 07:01N 29°48' W 095°04'0 0.2
2018-Feb-16 06:59N 29°48' W 095°04'0 0.0
2018-Feb-16 06:28N 29°48' W 095°04'0 0.3
2018-Feb-16 05:57N 29°48' W 095°04'1 1.2
2018-Feb-16 05:04N 29°47' W 095°04'0 0.1
2018-Feb-16 04:55N 29°47' W 095°04'1 2.2
2018-Feb-16 04:30N 29°48' W 095°04'0 0.1
2018-Feb-16 04:00N 29°48' W 095°04'0 0.4
2018-Feb-16 03:30N 29°48' W 095°04'1 0.8
2018-Feb-16 02:49N 29°47' W 095°04'1 1.3
2018-Feb-16 02:18N 29°48' W 095°04'0 0.0
2018-Feb-16 00:05N 29°48' W 095°04'1 0.1
2018-Feb-15 09:27N 29°47' W 095°04'1 0.7
2018-Feb-15 08:28N 29°48' W 095°04'0 0.0
2018-Feb-15 08:00N 29°48' W 095°04'0 0.0
2018-Feb-15 07:11N 29°48' W 095°04'0 0.0
2018-Feb-15 07:00N 29°48' W 095°04'0 0.0
2018-Feb-15 06:29N 29°48' W 095°04'0 0.0
2018-Feb-15 05:58N 29°48' W 095°04'0 0.0
2018-Feb-15 05:28N 29°48' W 095°04'0 0.0
2018-Feb-15 04:57N 29°48' W 095°04'0 0.0
2018-Feb-15 04:23N 29°48' W 095°04'0 0.1
2018-Feb-15 03:20N 29°48' W 095°04'1 0.1
2018-Feb-14 17:43N 29°47' W 095°04'1 1.6
2018-Feb-14 17:13N 29°48' W 095°04'0 1.0
2018-Feb-14 17:00N 29°48' W 095°04'0 0.1
2018-Feb-14 14:48N 29°48' W 095°04'  
Track history (hours):
 
Tides and Currents Weather Stations Pressure Air Temp Water Temp Dewpoint Dewpoint Depression Visibility Wind Speed Wind Dir Waves Ship Positions

Cheryl K

Owner: The Tug Cheryl K, L.L.C., Sugar Land, TX. More information available from US FCC via Universal Licensing System and Coast Guard Vessel Documentation Center.

Last reported at 2018-Feb-19 21:09 UTC. Time now 2018-Feb-24 16:37 UTC.
Position N 29°47' W 095°04'.

Type: Towing. MMSI: 367127110.

Date/timePositionNaut miles runAvg speedWind from/ knotsBaromVisibWave heightAir tempDewpointWater temp
2018-Feb-19 21:09N 29°47' W 095°04'0 0.0
2018-Feb-19 15:15N 29°47' W 095°04'1 1.9
2018-Feb-19 14:50N 29°48' W 095°04'0 0.8
2018-Feb-19 14:30N 29°48' W 095°04'0 0.0
2018-Feb-19 14:00N 29°48' W 095°04'0 0.0
2018-Feb-19 13:28N 29°48' W 095°04'0 0.0
2018-Feb-19 10:36N 29°48' W 095°04'0 0.3
2018-Feb-19 10:13N 29°48' W 095°04'0 0.2
2018-Feb-19 09:39N 29°48' W 095°04'0 0.0
2018-Feb-19 09:30N 29°48' W 095°04'0 0.2
2018-Feb-19 08:58N 29°48' W 095°04'0 0.0
2018-Feb-19 08:27N 29°48' W 095°04'0 0.0
2018-Feb-19 08:00N 29°48' W 095°04'0 0.0
2018-Feb-19 07:20N 29°48' W 095°04'0 0.7
2018-Feb-19 06:49N 29°48' W 095°04'1 1.5
2018-Feb-19 06:26N 29°47' W 095°04'1 1.3
2018-Feb-19 05:56N 29°48' W 095°04'0 0.0
2018-Feb-19 05:30N 29°48' W 095°04'0 0.0
2018-Feb-19 04:54N 29°48' W 095°04'  
2018-Feb-16 20:46N 29°45' W 095°06'4 3.4
2018-Feb-16 19:38N 29°45' W 095°11'2 6.5
2018-Feb-16 19:21N 29°44' W 095°09'4 6.4
2018-Feb-16 18:43N 29°46' W 095°05'1 0.9
2018-Feb-16 17:20N 29°47' W 095°04'1 1.6
2018-Feb-16 17:00N 29°47' W 095°04'1 1.7
2018-Feb-16 16:30N 29°46' W 095°05'0 0.2
2018-Feb-16 15:47N 29°46' W 095°05'0 0.4
2018-Feb-16 15:30N 29°46' W 095°05'2 0.3
2018-Feb-16 10:02N 29°48' W 095°04'0 0.0
2018-Feb-16 07:01N 29°48' W 095°04'0 0.2
2018-Feb-16 06:59N 29°48' W 095°04'0 0.0
2018-Feb-16 06:28N 29°48' W 095°04'0 0.3
2018-Feb-16 05:57N 29°48' W 095°04'1 1.2
2018-Feb-16 05:04N 29°47' W 095°04'0 0.1
2018-Feb-16 04:55N 29°47' W 095°04'1 2.2
2018-Feb-16 04:30N 29°48' W 095°04'0 0.1
2018-Feb-16 04:00N 29°48' W 095°04'0 0.4
2018-Feb-16 03:30N 29°48' W 095°04'1 0.8
2018-Feb-16 02:49N 29°47' W 095°04'1 1.3
2018-Feb-16 02:18N 29°48' W 095°04'0 0.0
2018-Feb-16 00:05N 29°48' W 095°04'1 0.1
2018-Feb-15 09:27N 29°47' W 095°04'1 0.7
2018-Feb-15 08:28N 29°48' W 095°04'0 0.0
2018-Feb-15 08:00N 29°48' W 095°04'0 0.0
2018-Feb-15 07:11N 29°48' W 095°04'0 0.0
2018-Feb-15 07:00N 29°48' W 095°04'0 0.0
2018-Feb-15 06:29N 29°48' W 095°04'0 0.0
2018-Feb-15 05:58N 29°48' W 095°04'0 0.0
2018-Feb-15 05:28N 29°48' W 095°04'0 0.0
2018-Feb-15 04:57N 29°48' W 095°04'0 0.0
2018-Feb-15 04:23N 29°48' W 095°04'0 0.1
2018-Feb-15 03:20N 29°48' W 095°04'1 0.1
2018-Feb-14 17:43N 29°47' W 095°04'1 1.6
2018-Feb-14 17:13N 29°48' W 095°04'0 1.0
2018-Feb-14 17:00N 29°48' W 095°04'0 0.1
2018-Feb-14 14:48N 29°48' W 095°04'  

Dump ship's entire track history